sensor_id;sensor_type;location;lat;lon;timestamp;temperature;humidity
42617;DHT22;28250;52.320;0.360;2024-02-28T00:02:19;5.60;99.90
42617;DHT22;28250;52.320;0.360;2024-02-28T00:04:45;5.50;99.90
42617;DHT22;28250;52.320;0.360;2024-02-28T00:07:12;5.50;99.90
42617;DHT22;28250;52.320;0.360;2024-02-28T00:09:39;5.40;99.90
42617;DHT22;28250;52.320;0.360;2024-02-28T00:12:05;5.40;99.90
42617;DHT22;28250;52.320;0.360;2024-02-28T00:14:32;5.30;99.90
42617;DHT22;28250;52.320;0.360;2024-02-28T00:16:58;5.30;99.90
42617;DHT22;28250;52.320;0.360;2024-02-28T00:19:25;5.30;99.90
42617;DHT22;28250;52.320;0.360;2024-02-28T00:21:51;5.20;99.90
42617;DHT22;28250;52.320;0.360;2024-02-28T00:24:18;5.10;99.90
42617;DHT22;28250;52.320;0.360;2024-02-28T00:26:45;5.10;99.90
42617;DHT22;28250;52.320;0.360;2024-02-28T00:29:12;5.00;99.90
42617;DHT22;28250;52.320;0.360;2024-02-28T00:31:38;5.00;99.90
42617;DHT22;28250;52.320;0.360;2024-02-28T00:34:05;5.00;99.90
42617;DHT22;28250;52.320;0.360;2024-02-28T00:36:32;5.00;99.90
42617;DHT22;28250;52.320;0.360;2024-02-28T00:38:58;5.00;99.90
42617;DHT22;28250;52.320;0.360;2024-02-28T00:41:25;5.10;99.90
42617;DHT22;28250;52.320;0.360;2024-02-28T00:43:51;5.10;99.90
42617;DHT22;28250;52.320;0.360;2024-02-28T00:46:20;5.20;99.90
42617;DHT22;28250;52.320;0.360;2024-02-28T00:48:46;5.20;99.90
42617;DHT22;28250;52.320;0.360;2024-02-28T00:51:13;5.20;99.90
42617;DHT22;28250;52.320;0.360;2024-02-28T00:53:40;5.10;99.90
42617;DHT22;28250;52.320;0.360;2024-02-28T00:56:08;5.00;99.90
42617;DHT22;28250;52.320;0.360;2024-02-28T00:58:34;5.10;99.90
42617;DHT22;28250;52.320;0.360;2024-02-28T01:01:01;4.80;99.90
42617;DHT22;28250;52.320;0.360;2024-02-28T01:03:28;4.70;99.90
42617;DHT22;28250;52.320;0.360;2024-02-28T01:05:54;4.50;99.90
42617;DHT22;28250;52.320;0.360;2024-02-28T01:08:20;4.50;99.90
42617;DHT22;28250;52.320;0.360;2024-02-28T01:10:47;4.40;99.90
42617;DHT22;28250;52.320;0.360;2024-02-28T01:13:14;4.30;99.90
42617;DHT22;28250;52.320;0.360;2024-02-28T01:15:40;4.30;99.90
42617;DHT22;28250;52.320;0.360;2024-02-28T01:18:09;4.30;99.90
42617;DHT22;28250;52.320;0.360;2024-02-28T01:20:36;4.30;99.90
42617;DHT22;28250;52.320;0.360;2024-02-28T01:23:03;4.20;99.90
42617;DHT22;28250;52.320;0.360;2024-02-28T01:25:29;4.20;99.90
42617;DHT22;28250;52.320;0.360;2024-02-28T01:27:56;4.20;99.90
42617;DHT22;28250;52.320;0.360;2024-02-28T01:30:24;4.20;99.90
42617;DHT22;28250;52.320;0.360;2024-02-28T01:32:50;4.20;99.90
42617;DHT22;28250;52.320;0.360;2024-02-28T01:35:17;4.20;99.90
42617;DHT22;28250;52.320;0.360;2024-02-28T01:37:43;4.20;99.90
42617;DHT22;28250;52.320;0.360;2024-02-28T01:40:10;4.10;99.90
42617;DHT22;28250;52.320;0.360;2024-02-28T01:42:37;4.20;99.90
42617;DHT22;28250;52.320;0.360;2024-02-28T01:45:03;4.10;99.90
42617;DHT22;28250;52.320;0.360;2024-02-28T01:47:30;4.00;99.90
42617;DHT22;28250;52.320;0.360;2024-02-28T01:49:57;3.90;99.90
42617;DHT22;28250;52.320;0.360;2024-02-28T01:52:23;3.80;99.90
42617;DHT22;28250;52.320;0.360;2024-02-28T01:54:50;3.80;99.90
42617;DHT22;28250;52.320;0.360;2024-02-28T01:57:17;3.80;99.90
42617;DHT22;28250;52.320;0.360;2024-02-28T01:59:44;3.80;99.90
42617;DHT22;28250;52.320;0.360;2024-02-28T02:02:10;3.80;99.90
42617;DHT22;28250;52.320;0.360;2024-02-28T02:04:37;3.70;99.90
42617;DHT22;28250;52.320;0.360;2024-02-28T02:07:04;3.70;99.90
42617;DHT22;28250;52.320;0.360;2024-02-28T02:09:34;3.70;99.90
42617;DHT22;28250;52.320;0.360;2024-02-28T02:12:02;3.70;99.90
42617;DHT22;28250;52.320;0.360;2024-02-28T02:14:28;3.60;99.90
42617;DHT22;28250;52.320;0.360;2024-02-28T02:16:54;3.60;99.90
42617;DHT22;28250;52.320;0.360;2024-02-28T02:19:21;3.60;99.90
42617;DHT22;28250;52.320;0.360;2024-02-28T02:21:51;3.60;99.90
42617;DHT22;28250;52.320;0.360;2024-02-28T02:24:19;3.50;99.90
42617;DHT22;28250;52.320;0.360;2024-02-28T02:26:45;3.50;99.90
42617;DHT22;28250;52.320;0.360;2024-02-28T02:29:13;3.50;99.90
42617;DHT22;28250;52.320;0.360;2024-02-28T02:31:39;3.60;99.90
42617;DHT22;28250;52.320;0.360;2024-02-28T02:34:06;3.50;99.90
42617;DHT22;28250;52.320;0.360;2024-02-28T02:36:33;3.40;99.90
42617;DHT22;28250;52.320;0.360;2024-02-28T02:38:59;3.30;99.90
42617;DHT22;28250;52.320;0.360;2024-02-28T02:41:26;3.50;99.90
42617;DHT22;28250;52.320;0.360;2024-02-28T02:43:52;3.40;99.90
42617;DHT22;28250;52.320;0.360;2024-02-28T02:46:19;3.40;99.90
42617;DHT22;28250;52.320;0.360;2024-02-28T02:48:45;3.30;99.90
42617;DHT22;28250;52.320;0.360;2024-02-28T02:51:11;3.30;99.90
42617;DHT22;28250;52.320;0.360;2024-02-28T02:53:38;3.40;99.90
42617;DHT22;28250;52.320;0.360;2024-02-28T02:56:04;3.30;99.90
42617;DHT22;28250;52.320;0.360;2024-02-28T02:58:31;3.40;99.90
42617;DHT22;28250;52.320;0.360;2024-02-28T03:00:58;3.60;99.90
42617;DHT22;28250;52.320;0.360;2024-02-28T03:03:24;3.50;99.90
42617;DHT22;28250;52.320;0.360;2024-02-28T03:05:50;3.50;99.90
42617;DHT22;28250;52.320;0.360;2024-02-28T03:08:17;3.40;99.90
42617;DHT22;28250;52.320;0.360;2024-02-28T03:10:43;3.50;99.90
42617;DHT22;28250;52.320;0.360;2024-02-28T03:13:10;3.50;99.90
42617;DHT22;28250;52.320;0.360;2024-02-28T03:15:36;3.50;99.90
42617;DHT22;28250;52.320;0.360;2024-02-28T03:18:02;3.60;99.90
42617;DHT22;28250;52.320;0.360;2024-02-28T03:20:29;3.40;99.90
42617;DHT22;28250;52.320;0.360;2024-02-28T03:22:56;3.40;99.90
42617;DHT22;28250;52.320;0.360;2024-02-28T03:25:22;3.30;99.90
42617;DHT22;28250;52.320;0.360;2024-02-28T03:27:48;3.40;99.90
42617;DHT22;28250;52.320;0.360;2024-02-28T03:30:15;3.40;99.90
42617;DHT22;28250;52.320;0.360;2024-02-28T03:32:41;3.30;99.90
42617;DHT22;28250;52.320;0.360;2024-02-28T03:35:26;3.40;99.90
42617;DHT22;28250;52.320;0.360;2024-02-28T03:37:53;3.40;99.90
42617;DHT22;28250;52.320;0.360;2024-02-28T03:40:19;3.40;99.90
42617;DHT22;28250;52.320;0.360;2024-02-28T03:42:46;3.50;99.90
42617;DHT22;28250;52.320;0.360;2024-02-28T03:45:12;3.50;99.90
42617;DHT22;28250;52.320;0.360;2024-02-28T03:47:38;3.40;99.90
42617;DHT22;28250;52.320;0.360;2024-02-28T03:50:05;3.40;99.90
42617;DHT22;28250;52.320;0.360;2024-02-28T03:52:31;3.30;99.90
42617;DHT22;28250;52.320;0.360;2024-02-28T03:54:58;3.50;99.90
42617;DHT22;28250;52.320;0.360;2024-02-28T03:57:25;3.50;99.90
42617;DHT22;28250;52.320;0.360;2024-02-28T03:59:51;3.60;99.90
42617;DHT22;28250;52.320;0.360;2024-02-28T04:02:17;3.60;99.90
42617;DHT22;28250;52.320;0.360;2024-02-28T04:04:43;3.60;99.90
42617;DHT22;28250;52.320;0.360;2024-02-28T04:07:10;3.40;99.90
42617;DHT22;28250;52.320;0.360;2024-02-28T04:09:36;3.50;99.90
42617;DHT22;28250;52.320;0.360;2024-02-28T04:12:03;3.50;99.90
42617;DHT22;28250;52.320;0.360;2024-02-28T04:14:29;3.40;99.90
42617;DHT22;28250;52.320;0.360;2024-02-28T04:16:55;3.40;99.90
42617;DHT22;28250;52.320;0.360;2024-02-28T04:19:21;3.30;99.90
42617;DHT22;28250;52.320;0.360;2024-02-28T04:21:47;3.50;99.90
42617;DHT22;28250;52.320;0.360;2024-02-28T04:24:13;3.50;99.90
42617;DHT22;28250;52.320;0.360;2024-02-28T04:26:40;3.50;99.90
42617;DHT22;28250;52.320;0.360;2024-02-28T04:29:06;3.50;99.90
42617;DHT22;28250;52.320;0.360;2024-02-28T04:31:39;3.50;99.90
42617;DHT22;28250;52.320;0.360;2024-02-28T04:34:06;3.40;99.90
42617;DHT22;28250;52.320;0.360;2024-02-28T04:36:32;3.30;99.90
42617;DHT22;28250;52.320;0.360;2024-02-28T04:38:58;3.40;99.90
42617;DHT22;28250;52.320;0.360;2024-02-28T04:41:28;3.40;99.90
42617;DHT22;28250;52.320;0.360;2024-02-28T04:43:54;3.40;99.90
42617;DHT22;28250;52.320;0.360;2024-02-28T04:46:20;3.50;99.90
42617;DHT22;28250;52.320;0.360;2024-02-28T04:48:46;3.40;99.90
42617;DHT22;28250;52.320;0.360;2024-02-28T04:51:15;3.30;99.90
42617;DHT22;28250;52.320;0.360;2024-02-28T04:53:43;3.30;99.90
42617;DHT22;28250;52.320;0.360;2024-02-28T04:56:10;3.30;99.90
42617;DHT22;28250;52.320;0.360;2024-02-28T04:58:37;3.30;99.90
42617;DHT22;28250;52.320;0.360;2024-02-28T05:01:03;3.30;99.90
42617;DHT22;28250;52.320;0.360;2024-02-28T05:03:29;3.30;99.90
42617;DHT22;28250;52.320;0.360;2024-02-28T05:05:55;3.40;99.90
42617;DHT22;28250;52.320;0.360;2024-02-28T05:08:22;3.40;99.90
42617;DHT22;28250;52.320;0.360;2024-02-28T05:10:51;3.30;99.90
42617;DHT22;28250;52.320;0.360;2024-02-28T05:13:18;3.30;99.90
42617;DHT22;28250;52.320;0.360;2024-02-28T05:15:44;3.20;99.90
42617;DHT22;28250;52.320;0.360;2024-02-28T05:18:11;3.30;99.90
42617;DHT22;28250;52.320;0.360;2024-02-28T05:20:37;3.40;99.90
42617;DHT22;28250;52.320;0.360;2024-02-28T05:23:03;3.30;99.90
42617;DHT22;28250;52.320;0.360;2024-02-28T05:25:29;3.30;99.90
42617;DHT22;28250;52.320;0.360;2024-02-28T05:27:56;3.30;99.90
42617;DHT22;28250;52.320;0.360;2024-02-28T05:30:22;3.40;99.90
42617;DHT22;28250;52.320;0.360;2024-02-28T05:32:48;3.40;99.90
42617;DHT22;28250;52.320;0.360;2024-02-28T05:35:14;3.40;99.90
42617;DHT22;28250;52.320;0.360;2024-02-28T05:37:41;3.60;99.90
42617;DHT22;28250;52.320;0.360;2024-02-28T05:40:08;3.70;99.90
42617;DHT22;28250;52.320;0.360;2024-02-28T05:42:35;3.70;99.90
42617;DHT22;28250;52.320;0.360;2024-02-28T05:45:02;3.80;99.90
42617;DHT22;28250;52.320;0.360;2024-02-28T05:47:28;3.80;99.90
42617;DHT22;28250;52.320;0.360;2024-02-28T05:49:55;3.90;99.90
42617;DHT22;28250;52.320;0.360;2024-02-28T05:52:24;4.00;99.90
42617;DHT22;28250;52.320;0.360;2024-02-28T05:54:51;4.00;99.90
42617;DHT22;28250;52.320;0.360;2024-02-28T05:57:18;4.00;99.90
42617;DHT22;28250;52.320;0.360;2024-02-28T05:59:44;4.00;99.90
42617;DHT22;28250;52.320;0.360;2024-02-28T06:02:10;4.10;99.90
42617;DHT22;28250;52.320;0.360;2024-02-28T06:04:36;4.10;99.90
42617;DHT22;28250;52.320;0.360;2024-02-28T06:07:03;4.10;99.90
42617;DHT22;28250;52.320;0.360;2024-02-28T06:09:29;4.10;99.90
42617;DHT22;28250;52.320;0.360;2024-02-28T06:11:56;4.10;99.90
42617;DHT22;28250;52.320;0.360;2024-02-28T06:14:22;4.20;99.90
42617;DHT22;28250;52.320;0.360;2024-02-28T06:16:48;4.20;99.90
42617;DHT22;28250;52.320;0.360;2024-02-28T06:19:14;4.30;99.90
42617;DHT22;28250;52.320;0.360;2024-02-28T06:21:41;4.30;99.90
42617;DHT22;28250;52.320;0.360;2024-02-28T06:24:07;4.30;99.90
42617;DHT22;28250;52.320;0.360;2024-02-28T06:26:34;4.30;99.90
42617;DHT22;28250;52.320;0.360;2024-02-28T06:29:00;4.30;99.90
42617;DHT22;28250;52.320;0.360;2024-02-28T06:31:30;4.30;99.90
42617;DHT22;28250;52.320;0.360;2024-02-28T06:33:57;4.30;99.90
42617;DHT22;28250;52.320;0.360;2024-02-28T06:36:23;4.30;99.90
42617;DHT22;28250;52.320;0.360;2024-02-28T06:38:49;4.40;99.90
42617;DHT22;28250;52.320;0.360;2024-02-28T06:41:16;4.30;99.90
42617;DHT22;28250;52.320;0.360;2024-02-28T06:43:42;4.40;99.90
42617;DHT22;28250;52.320;0.360;2024-02-28T06:46:09;4.30;99.90
42617;DHT22;28250;52.320;0.360;2024-02-28T06:48:35;4.30;99.90
42617;DHT22;28250;52.320;0.360;2024-02-28T06:51:02;4.30;99.90
42617;DHT22;28250;52.320;0.360;2024-02-28T06:53:28;4.30;99.90
42617;DHT22;28250;52.320;0.360;2024-02-28T06:55:55;4.40;99.90
42617;DHT22;28250;52.320;0.360;2024-02-28T06:58:21;4.40;99.90
42617;DHT22;28250;52.320;0.360;2024-02-28T07:00:50;4.40;99.90
42617;DHT22;28250;52.320;0.360;2024-02-28T07:03:17;4.40;99.90
42617;DHT22;28250;52.320;0.360;2024-02-28T07:05:43;4.40;99.90
42617;DHT22;28250;52.320;0.360;2024-02-28T07:08:09;4.40;99.90
42617;DHT22;28250;52.320;0.360;2024-02-28T07:10:37;4.40;99.90
42617;DHT22;28250;52.320;0.360;2024-02-28T07:13:04;4.40;99.90
42617;DHT22;28250;52.320;0.360;2024-02-28T07:15:30;4.40;99.90
42617;DHT22;28250;52.320;0.360;2024-02-28T07:17:57;4.40;99.90
42617;DHT22;28250;52.320;0.360;2024-02-28T07:20:23;4.40;99.90
42617;DHT22;28250;52.320;0.360;2024-02-28T07:22:50;4.40;99.90
42617;DHT22;28250;52.320;0.360;2024-02-28T07:25:16;4.50;99.90
42617;DHT22;28250;52.320;0.360;2024-02-28T07:27:42;4.50;99.90
42617;DHT22;28250;52.320;0.360;2024-02-28T07:30:09;4.50;99.90
42617;DHT22;28250;52.320;0.360;2024-02-28T07:32:35;4.50;99.90
42617;DHT22;28250;52.320;0.360;2024-02-28T07:35:02;4.50;99.90
42617;DHT22;28250;52.320;0.360;2024-02-28T07:37:29;4.50;99.90
42617;DHT22;28250;52.320;0.360;2024-02-28T07:39:55;4.50;99.90
42617;DHT22;28250;52.320;0.360;2024-02-28T07:42:22;4.50;99.90
42617;DHT22;28250;52.320;0.360;2024-02-28T07:44:48;4.50;99.90
42617;DHT22;28250;52.320;0.360;2024-02-28T07:47:19;4.60;99.90
42617;DHT22;28250;52.320;0.360;2024-02-28T07:49:46;4.60;99.90
42617;DHT22;28250;52.320;0.360;2024-02-28T07:52:12;4.60;99.90
42617;DHT22;28250;52.320;0.360;2024-02-28T07:54:38;4.60;99.90
42617;DHT22;28250;52.320;0.360;2024-02-28T07:57:08;4.70;99.90
42617;DHT22;28250;52.320;0.360;2024-02-28T07:59:42;4.70;99.90
42617;DHT22;28250;52.320;0.360;2024-02-28T08:02:09;4.80;99.90
42617;DHT22;28250;52.320;0.360;2024-02-28T08:04:37;4.80;99.90
42617;DHT22;28250;52.320;0.360;2024-02-28T08:07:04;4.70;99.90
42617;DHT22;28250;52.320;0.360;2024-02-28T08:09:30;4.80;99.90
42617;DHT22;28250;52.320;0.360;2024-02-28T08:11:57;4.80;99.90
42617;DHT22;28250;52.320;0.360;2024-02-28T08:14:24;4.80;99.90
42617;DHT22;28250;52.320;0.360;2024-02-28T08:16:51;4.80;99.90
42617;DHT22;28250;52.320;0.360;2024-02-28T08:19:17;4.90;99.90
42617;DHT22;28250;52.320;0.360;2024-02-28T08:21:43;4.90;99.90
42617;DHT22;28250;52.320;0.360;2024-02-28T08:24:10;4.90;99.90
42617;DHT22;28250;52.320;0.360;2024-02-28T08:26:36;5.10;99.90
42617;DHT22;28250;52.320;0.360;2024-02-28T08:29:02;5.10;99.90
42617;DHT22;28250;52.320;0.360;2024-02-28T08:31:29;5.10;99.90
42617;DHT22;28250;52.320;0.360;2024-02-28T08:33:55;5.20;99.90
42617;DHT22;28250;52.320;0.360;2024-02-28T08:36:21;5.20;99.90
42617;DHT22;28250;52.320;0.360;2024-02-28T08:38:48;5.30;99.90
42617;DHT22;28250;52.320;0.360;2024-02-28T08:41:14;5.30;99.90
42617;DHT22;28250;52.320;0.360;2024-02-28T08:43:40;5.40;99.90
42617;DHT22;28250;52.320;0.360;2024-02-28T08:46:07;5.50;99.90
42617;DHT22;28250;52.320;0.360;2024-02-28T08:48:33;5.50;99.90
42617;DHT22;28250;52.320;0.360;2024-02-28T08:51:00;5.50;99.90
42617;DHT22;28250;52.320;0.360;2024-02-28T08:53:27;5.60;99.90
42617;DHT22;28250;52.320;0.360;2024-02-28T08:55:54;5.60;99.90
42617;DHT22;28250;52.320;0.360;2024-02-28T08:58:20;5.60;99.90
42617;DHT22;28250;52.320;0.360;2024-02-28T09:00:46;5.70;99.90
42617;DHT22;28250;52.320;0.360;2024-02-28T09:03:13;5.80;99.90
42617;DHT22;28250;52.320;0.360;2024-02-28T09:05:39;5.80;99.90
42617;DHT22;28250;52.320;0.360;2024-02-28T09:08:05;5.90;99.90
42617;DHT22;28250;52.320;0.360;2024-02-28T09:10:32;5.90;99.90
42617;DHT22;28250;52.320;0.360;2024-02-28T09:13:00;6.00;99.90
42617;DHT22;28250;52.320;0.360;2024-02-28T09:15:26;6.10;99.90
42617;DHT22;28250;52.320;0.360;2024-02-28T09:17:52;6.20;99.90
42617;DHT22;28250;52.320;0.360;2024-02-28T09:20:19;6.20;99.90
42617;DHT22;28250;52.320;0.360;2024-02-28T09:22:45;6.30;99.90
42617;DHT22;28250;52.320;0.360;2024-02-28T09:25:11;6.40;99.90
42617;DHT22;28250;52.320;0.360;2024-02-28T09:27:37;6.40;99.90
42617;DHT22;28250;52.320;0.360;2024-02-28T09:30:04;6.50;99.90
42617;DHT22;28250;52.320;0.360;2024-02-28T09:32:31;6.60;99.90
42617;DHT22;28250;52.320;0.360;2024-02-28T09:34:57;6.60;99.90
42617;DHT22;28250;52.320;0.360;2024-02-28T09:37:24;6.70;99.90
42617;DHT22;28250;52.320;0.360;2024-02-28T09:39:51;6.70;99.90
42617;DHT22;28250;52.320;0.360;2024-02-28T09:42:17;6.80;99.90
42617;DHT22;28250;52.320;0.360;2024-02-28T09:44:44;6.90;99.90
42617;DHT22;28250;52.320;0.360;2024-02-28T09:47:10;7.00;99.90
42617;DHT22;28250;52.320;0.360;2024-02-28T09:49:37;7.10;99.90
42617;DHT22;28250;52.320;0.360;2024-02-28T09:52:04;7.20;99.90
42617;DHT22;28250;52.320;0.360;2024-02-28T09:54:30;7.20;99.90
42617;DHT22;28250;52.320;0.360;2024-02-28T09:56:57;7.40;99.90
42617;DHT22;28250;52.320;0.360;2024-02-28T09:59:24;7.50;99.90
42617;DHT22;28250;52.320;0.360;2024-02-28T10:01:57;7.60;99.90
42617;DHT22;28250;52.320;0.360;2024-02-28T10:04:26;7.80;99.90
42617;DHT22;28250;52.320;0.360;2024-02-28T10:06:53;7.90;99.90
42617;DHT22;28250;52.320;0.360;2024-02-28T10:09:20;8.10;99.90
42617;DHT22;28250;52.320;0.360;2024-02-28T10:11:46;8.20;99.90
42617;DHT22;28250;52.320;0.360;2024-02-28T10:14:17;8.30;99.90
42617;DHT22;28250;52.320;0.360;2024-02-28T10:16:45;8.30;99.90
42617;DHT22;28250;52.320;0.360;2024-02-28T10:19:11;8.40;99.90
42617;DHT22;28250;52.320;0.360;2024-02-28T10:21:38;8.40;99.90
42617;DHT22;28250;52.320;0.360;2024-02-28T10:24:05;8.40;99.90
42617;DHT22;28250;52.320;0.360;2024-02-28T10:26:31;8.50;99.90
42617;DHT22;28250;52.320;0.360;2024-02-28T10:29:04;8.50;99.90
42617;DHT22;28250;52.320;0.360;2024-02-28T10:31:32;8.40;99.90
42617;DHT22;28250;52.320;0.360;2024-02-28T10:34:03;8.40;99.90
42617;DHT22;28250;52.320;0.360;2024-02-28T10:36:32;8.50;99.90
42617;DHT22;28250;52.320;0.360;2024-02-28T10:39:00;8.50;99.90
42617;DHT22;28250;52.320;0.360;2024-02-28T10:41:26;8.60;99.90
42617;DHT22;28250;52.320;0.360;2024-02-28T10:43:54;8.60;99.90
42617;DHT22;28250;52.320;0.360;2024-02-28T10:46:20;8.60;99.90
42617;DHT22;28250;52.320;0.360;2024-02-28T10:48:49;8.70;99.90
42617;DHT22;28250;52.320;0.360;2024-02-28T10:51:23;8.80;99.90
42617;DHT22;28250;52.320;0.360;2024-02-28T10:54:13;9.00;99.90
42617;DHT22;28250;52.320;0.360;2024-02-28T10:56:42;9.00;99.90
42617;DHT22;28250;52.320;0.360;2024-02-28T10:59:10;9.00;99.90
42617;DHT22;28250;52.320;0.360;2024-02-28T11:01:40;9.00;99.90
42617;DHT22;28250;52.320;0.360;2024-02-28T11:04:09;9.10;99.90
42617;DHT22;28250;52.320;0.360;2024-02-28T11:06:51;9.30;99.90
42617;DHT22;28250;52.320;0.360;2024-02-28T11:09:24;9.30;99.90
42617;DHT22;28250;52.320;0.360;2024-02-28T11:11:53;9.30;99.90
42617;DHT22;28250;52.320;0.360;2024-02-28T11:14:22;9.40;99.90
42617;DHT22;28250;52.320;0.360;2024-02-28T11:17:01;9.50;99.90
42617;DHT22;28250;52.320;0.360;2024-02-28T11:19:30;9.40;99.90
42617;DHT22;28250;52.320;0.360;2024-02-28T11:22:00;9.40;99.90
42617;DHT22;28250;52.320;0.360;2024-02-28T11:24:31;9.50;99.90
42617;DHT22;28250;52.320;0.360;2024-02-28T11:26:59;9.60;99.90
42617;DHT22;28250;52.320;0.360;2024-02-28T11:29:27;9.60;99.90
42617;DHT22;28250;52.320;0.360;2024-02-28T11:31:55;9.70;99.90
42617;DHT22;28250;52.320;0.360;2024-02-28T11:34:22;9.80;99.90
42617;DHT22;28250;52.320;0.360;2024-02-28T11:36:49;9.90;99.90
42617;DHT22;28250;52.320;0.360;2024-02-28T11:39:17;10.00;99.90
42617;DHT22;28250;52.320;0.360;2024-02-28T11:41:44;10.00;99.90
42617;DHT22;28250;52.320;0.360;2024-02-28T11:44:13;10.20;99.90
42617;DHT22;28250;52.320;0.360;2024-02-28T11:46:47;10.20;99.90
42617;DHT22;28250;52.320;0.360;2024-02-28T11:49:15;10.10;99.90
42617;DHT22;28250;52.320;0.360;2024-02-28T11:51:44;10.10;99.90
42617;DHT22;28250;52.320;0.360;2024-02-28T11:54:11;10.00;99.90
42617;DHT22;28250;52.320;0.360;2024-02-28T11:56:41;9.90;99.90
42617;DHT22;28250;52.320;0.360;2024-02-28T11:59:08;9.80;99.90
42617;DHT22;28250;52.320;0.360;2024-02-28T12:01:40;9.80;99.90
42617;DHT22;28250;52.320;0.360;2024-02-28T12:04:10;9.80;99.90
42617;DHT22;28250;52.320;0.360;2024-02-28T12:06:37;9.80;99.90
42617;DHT22;28250;52.320;0.360;2024-02-28T12:09:06;9.80;99.90
42617;DHT22;28250;52.320;0.360;2024-02-28T12:11:37;9.80;99.90
42617;DHT22;28250;52.320;0.360;2024-02-28T12:14:05;9.80;99.90
42617;DHT22;28250;52.320;0.360;2024-02-28T12:16:36;9.90;99.90
42617;DHT22;28250;52.320;0.360;2024-02-28T12:19:07;10.10;99.90
42617;DHT22;28250;52.320;0.360;2024-02-28T12:21:34;10.10;99.90
42617;DHT22;28250;52.320;0.360;2024-02-28T12:24:00;10.30;99.90
42617;DHT22;28250;52.320;0.360;2024-02-28T12:26:27;10.40;99.90
42617;DHT22;28250;52.320;0.360;2024-02-28T12:28:53;10.50;99.90
42617;DHT22;28250;52.320;0.360;2024-02-28T12:31:20;10.50;99.90
42617;DHT22;28250;52.320;0.360;2024-02-28T12:33:47;10.40;99.90
42617;DHT22;28250;52.320;0.360;2024-02-28T12:36:14;10.40;99.90
42617;DHT22;28250;52.320;0.360;2024-02-28T12:38:40;10.40;99.90
42617;DHT22;28250;52.320;0.360;2024-02-28T12:41:07;10.30;99.90
42617;DHT22;28250;52.320;0.360;2024-02-28T12:43:33;10.30;99.90
42617;DHT22;28250;52.320;0.360;2024-02-28T12:46:00;10.30;99.90
42617;DHT22;28250;52.320;0.360;2024-02-28T12:48:26;10.30;99.90
42617;DHT22;28250;52.320;0.360;2024-02-28T12:50:52;10.30;99.90
42617;DHT22;28250;52.320;0.360;2024-02-28T12:53:18;10.30;99.90
42617;DHT22;28250;52.320;0.360;2024-02-28T12:55:45;10.40;99.90
42617;DHT22;28250;52.320;0.360;2024-02-28T12:58:11;10.40;99.90
42617;DHT22;28250;52.320;0.360;2024-02-28T13:00:37;10.50;99.90
42617;DHT22;28250;52.320;0.360;2024-02-28T13:03:04;10.50;99.90
42617;DHT22;28250;52.320;0.360;2024-02-28T13:05:31;10.70;99.90
42617;DHT22;28250;52.320;0.360;2024-02-28T13:07:58;10.70;99.90
42617;DHT22;28250;52.320;0.360;2024-02-28T13:10:24;10.90;99.90
42617;DHT22;28250;52.320;0.360;2024-02-28T13:12:51;11.00;99.90
42617;DHT22;28250;52.320;0.360;2024-02-28T13:15:18;11.20;99.90
42617;DHT22;28250;52.320;0.360;2024-02-28T13:17:44;11.30;99.90
42617;DHT22;28250;52.320;0.360;2024-02-28T13:20:15;11.20;99.90
42617;DHT22;28250;52.320;0.360;2024-02-28T13:22:42;11.10;99.90
42617;DHT22;28250;52.320;0.360;2024-02-28T13:25:08;11.20;99.90
42617;DHT22;28250;52.320;0.360;2024-02-28T13:27:35;11.40;99.90
42617;DHT22;28250;52.320;0.360;2024-02-28T13:30:04;11.40;99.90
42617;DHT22;28250;52.320;0.360;2024-02-28T13:32:31;11.60;99.90
42617;DHT22;28250;52.320;0.360;2024-02-28T13:34:57;11.90;99.90
42617;DHT22;28250;52.320;0.360;2024-02-28T13:37:24;11.90;99.90
42617;DHT22;28250;52.320;0.360;2024-02-28T13:39:50;11.50;99.90
42617;DHT22;28250;52.320;0.360;2024-02-28T13:42:18;11.40;99.90
42617;DHT22;28250;52.320;0.360;2024-02-28T13:44:50;11.40;99.90
42617;DHT22;28250;52.320;0.360;2024-02-28T13:47:17;11.30;99.90
42617;DHT22;28250;52.320;0.360;2024-02-28T13:49:43;11.30;99.90
42617;DHT22;28250;52.320;0.360;2024-02-28T13:52:09;11.40;99.90
42617;DHT22;28250;52.320;0.360;2024-02-28T13:54:36;11.20;99.90
42617;DHT22;28250;52.320;0.360;2024-02-28T13:57:03;11.20;99.90
42617;DHT22;28250;52.320;0.360;2024-02-28T13:59:30;11.20;99.90
42617;DHT22;28250;52.320;0.360;2024-02-28T14:01:57;11.20;99.90
42617;DHT22;28250;52.320;0.360;2024-02-28T14:04:26;11.30;99.90
42617;DHT22;28250;52.320;0.360;2024-02-28T14:06:52;11.30;99.90
42617;DHT22;28250;52.320;0.360;2024-02-28T14:09:18;11.50;99.90
42617;DHT22;28250;52.320;0.360;2024-02-28T14:11:45;11.50;99.90
42617;DHT22;28250;52.320;0.360;2024-02-28T14:14:11;11.50;99.90
42617;DHT22;28250;52.320;0.360;2024-02-28T14:16:38;11.40;99.90
42617;DHT22;28250;52.320;0.360;2024-02-28T14:19:04;11.40;99.90
42617;DHT22;28250;52.320;0.360;2024-02-28T14:21:31;11.30;99.90
42617;DHT22;28250;52.320;0.360;2024-02-28T14:23:57;11.20;99.90
42617;DHT22;28250;52.320;0.360;2024-02-28T14:26:23;11.10;99.90
42617;DHT22;28250;52.320;0.360;2024-02-28T14:28:50;11.10;99.90
42617;DHT22;28250;52.320;0.360;2024-02-28T14:31:16;11.20;99.90
42617;DHT22;28250;52.320;0.360;2024-02-28T14:33:42;11.30;99.90
42617;DHT22;28250;52.320;0.360;2024-02-28T14:36:09;11.40;99.90
42617;DHT22;28250;52.320;0.360;2024-02-28T14:38:35;11.40;99.90
42617;DHT22;28250;52.320;0.360;2024-02-28T14:41:01;11.40;99.90
42617;DHT22;28250;52.320;0.360;2024-02-28T14:43:29;11.40;99.90
42617;DHT22;28250;52.320;0.360;2024-02-28T14:45:56;11.30;99.90
42617;DHT22;28250;52.320;0.360;2024-02-28T14:48:22;11.30;99.90
42617;DHT22;28250;52.320;0.360;2024-02-28T14:50:48;11.20;99.90
42617;DHT22;28250;52.320;0.360;2024-02-28T14:53:14;11.00;99.90
42617;DHT22;28250;52.320;0.360;2024-02-28T14:55:42;10.90;99.90
42617;DHT22;28250;52.320;0.360;2024-02-28T14:58:10;10.90;99.90
42617;DHT22;28250;52.320;0.360;2024-02-28T15:00:36;10.70;99.90
42617;DHT22;28250;52.320;0.360;2024-02-28T15:03:03;10.60;99.90
42617;DHT22;28250;52.320;0.360;2024-02-28T15:05:30;10.60;99.90
42617;DHT22;28250;52.320;0.360;2024-02-28T15:07:57;10.50;99.90
42617;DHT22;28250;52.320;0.360;2024-02-28T15:10:23;10.50;99.90
42617;DHT22;28250;52.320;0.360;2024-02-28T15:12:49;10.60;99.90
42617;DHT22;28250;52.320;0.360;2024-02-28T15:15:16;10.60;99.90
42617;DHT22;28250;52.320;0.360;2024-02-28T15:17:42;10.50;99.90
42617;DHT22;28250;52.320;0.360;2024-02-28T15:20:08;10.50;99.90
42617;DHT22;28250;52.320;0.360;2024-02-28T15:22:35;10.50;99.90
42617;DHT22;28250;52.320;0.360;2024-02-28T15:25:01;10.50;99.90
42617;DHT22;28250;52.320;0.360;2024-02-28T15:27:29;10.50;99.90
42617;DHT22;28250;52.320;0.360;2024-02-28T15:29:55;10.50;99.90
42617;DHT22;28250;52.320;0.360;2024-02-28T15:32:21;10.40;99.90
42617;DHT22;28250;52.320;0.360;2024-02-28T15:34:47;10.40;99.90
42617;DHT22;28250;52.320;0.360;2024-02-28T15:37:14;10.40;99.90
42617;DHT22;28250;52.320;0.360;2024-02-28T15:39:40;10.40;99.90
42617;DHT22;28250;52.320;0.360;2024-02-28T15:42:07;10.40;99.90